»·PEaware :: SWA1441 KPHX-KSLC

SWA1441 :: KPHX-KSLC

FLIGHT INFORMATION

Flight Status: Arrived
Operator:
Southwest Airlines
More flights by this operator :: More flights under this callsign
Pilot: Paul A. (20189)
Aircraft: BOEING 737-700
(B737)
More flights by this aircraft type
Origin: KPHX Phoenix Sky Harbor Intl
United States
Destination: KSLC Salt Lake City Intl
United States
More flights between these airports :: More routes between these airports
Route: QUAKY1 GCN BCE DELTA5
File this flight plan on PilotEdge
Remarks:
Altitude:
(Current/Filed)
32,000ft
Speed:
(Current/Filed)
455kts
Departed: 09-Oct-18 06:14 PM
Arrived: 09-Oct-18 07:34 PM
Distance/Time
Traveled:
441nm/1:20
Distance/Time
To Go:
Arrived

Flight Plot

Page will automatically refresh every two minutes.

Flight plan parsing failed; only flown route is shown


Map Options




Map Legend


Flown Route
Filed Route
Departure Airport
Arrival Airport
Navaid (VOR, NDB)
Fix

Horizontal Profiles

Position Reports

Time Latitude Longitude Heading Altitude Ground
Speed
09-Oct-18 17:54 33.434424 -111.995020 90 1142ft 0kts
09-Oct-18 17:55 33.434424 -111.995020 90 1142ft 0kts
09-Oct-18 17:56 33.434424 -111.995020 90 1142ft 0kts
09-Oct-18 17:57 33.434424 -111.995020 90 1142ft 0kts
09-Oct-18 17:58 33.434424 -111.995020 90 1143ft 0kts
09-Oct-18 17:59 33.434424 -111.995020 90 1143ft 0kts
09-Oct-18 18:00 33.434424 -111.995020 90 1143ft 0kts
09-Oct-18 18:01 33.434424 -111.995020 90 1143ft 0kts
09-Oct-18 18:02 33.434424 -111.995020 90 1143ft 0kts
09-Oct-18 18:03 33.434424 -111.995020 90 1143ft 0kts
09-Oct-18 18:04 33.434424 -111.995020 90 1143ft 0kts
09-Oct-18 18:05 33.434424 -111.995020 90 1143ft 0kts
09-Oct-18 18:06 33.434424 -111.995020 90 1143ft 0kts
09-Oct-18 18:07 33.434424 -111.995020 90 1143ft 0kts
09-Oct-18 18:08 33.434441 -111.995458 105 1143ft 0kts
09-Oct-18 18:09 33.434441 -111.995458 105 1143ft 0kts
09-Oct-18 18:10 33.434441 -111.995458 105 1143ft 0kts
09-Oct-18 18:11 33.434441 -111.995458 105 1143ft 0kts
09-Oct-18 18:12 33.434441 -111.995458 105 1143ft 0kts
09-Oct-18 18:13 33.434427 -111.995425 118 1143ft 3kts
09-Oct-18 18:14 33.432472 -111.993650 158 1143ft 3kts
09-Oct-18 18:15 33.431157 -111.993834 236 1143ft 13kts
09-Oct-18 18:16 33.431020 -112.028523 269 2372ft 158kts
09-Oct-18 18:17 33.432153 -112.083470 270 5174ft 213kts
09-Oct-18 18:18 33.435329 -112.163760 282 8264ft 255kts
09-Oct-18 18:19 33.495532 -112.200345 4 10035ft 278kts
09-Oct-18 18:20 33.574746 -112.183141 12 12235ft 316kts
09-Oct-18 18:21 33.654434 -112.123780 43 15815ft 359kts
09-Oct-18 18:22 33.723839 -112.033388 39 19588ft 378kts
09-Oct-18 18:23 33.817302 -111.987207 4 20851ft 364kts
09-Oct-18 18:24 33.918309 -111.968366 3 23025ft 371kts
09-Oct-18 18:25 34.022261 -111.948667 3 25952ft 384kts
09-Oct-18 18:26 34.129048 -111.939955 351 28531ft 385kts
09-Oct-18 18:27 34.234503 -111.951355 349 31311ft 379kts
09-Oct-18 18:28 34.340561 -111.963092 349 31943ft 381kts
09-Oct-18 18:29 34.445933 -111.974774 349 31954ft 379kts
09-Oct-18 18:30 34.551206 -111.986479 349 31956ft 379kts
09-Oct-18 18:31 34.656268 -111.998204 349 31956ft 379kts
09-Oct-18 18:32 34.743743 -112.007993 349 31959ft 378kts
09-Oct-18 18:33 34.865947 -112.021646 349 31960ft 377kts
09-Oct-18 18:34 34.970300 -112.033347 349 31970ft 376kts
09-Oct-18 18:35 35.074571 -112.045081 348 31977ft 375kts
09-Oct-18 18:36 35.178219 -112.056779 348 31984ft 374kts
09-Oct-18 18:37 35.264589 -112.066549 348 31982ft 374kts
09-Oct-18 18:38 35.385408 -112.080253 348 31981ft 372kts
09-Oct-18 18:39 35.471035 -112.089990 348 31980ft 371kts
09-Oct-18 18:40 35.573996 -112.101723 348 31978ft 371kts
09-Oct-18 18:41 35.676586 -112.113430 348 31974ft 370kts
09-Oct-18 18:42 35.779021 -112.125165 348 31970ft 369kts
09-Oct-18 18:43 35.881244 -112.136927 348 31969ft 368kts
09-Oct-18 18:44 35.983221 -112.148234 349 31970ft 369kts
09-Oct-18 18:45 36.085957 -112.157338 349 31967ft 369kts
09-Oct-18 18:46 36.188447 -112.166508 349 31961ft 369kts
09-Oct-18 18:47 36.290745 -112.175711 348 31949ft 369kts
09-Oct-18 18:48 36.393346 -112.184925 348 31936ft 369kts
09-Oct-18 18:49 36.496144 -112.194201 348 31921ft 369kts
09-Oct-18 18:50 36.598451 -112.203468 348 31904ft 369kts
09-Oct-18 18:51 36.701190 -112.212801 348 31890ft 370kts
09-Oct-18 18:52 36.803540 -112.222126 348 31882ft 370kts
09-Oct-18 18:53 36.906245 -112.231509 348 31878ft 369kts
09-Oct-18 18:54 37.008998 -112.240922 347 31875ft 369kts
09-Oct-18 18:55 37.111614 -112.250349 347 31881ft 369kts
09-Oct-18 18:56 37.231297 -112.261375 347 31890ft 369kts
09-Oct-18 18:57 37.316704 -112.269266 347 31898ft 370kts
09-Oct-18 18:58 37.419270 -112.278745 347 31910ft 369kts
09-Oct-18 18:59 37.521457 -112.288238 347 31922ft 369kts
09-Oct-18 19:00 37.641027 -112.299394 346 31932ft 368kts
09-Oct-18 19:01 37.726061 -112.308228 345 31933ft 366kts
09-Oct-18 19:02 37.827391 -112.320766 345 31925ft 367kts
09-Oct-18 19:03 37.929184 -112.333337 345 31911ft 367kts
09-Oct-18 19:04 38.030924 -112.345908 345 31892ft 366kts
09-Oct-18 19:05 38.132842 -112.358462 345 31871ft 367kts
09-Oct-18 19:06 38.234461 -112.371042 345 31848ft 367kts
09-Oct-18 19:07 38.336298 -112.383693 345 31829ft 367kts
09-Oct-18 19:08 38.438047 -112.396371 345 31815ft 368kts
09-Oct-18 19:09 38.540385 -112.409129 345 31441ft 368kts
09-Oct-18 19:10 38.642681 -112.421955 345 30443ft 371kts
09-Oct-18 19:11 38.745902 -112.434953 345 29441ft 371kts
09-Oct-18 19:12 38.848747 -112.447922 345 28442ft 371kts
09-Oct-18 19:13 38.951295 -112.460901 346 27441ft 371kts
09-Oct-18 19:14 39.054155 -112.473897 346 26439ft 371kts
09-Oct-18 19:15 39.157020 -112.486990 347 25438ft 371kts
09-Oct-18 19:16 39.259956 -112.500144 348 24437ft 371kts
09-Oct-18 19:17 39.362428 -112.485848 7 23819ft 361kts
09-Oct-18 19:18 39.458185 -112.453941 8 23823ft 373kts
09-Oct-18 19:19 39.559956 -112.419995 8 23003ft 374kts
09-Oct-18 19:20 39.659938 -112.386654 8 20705ft 365kts
09-Oct-18 19:21 39.756690 -112.354436 9 19504ft 359kts
09-Oct-18 19:22 39.852947 -112.318005 10 18449ft 360kts
09-Oct-18 19:23 39.949770 -112.279504 12 16644ft 356kts
09-Oct-18 19:24 40.041749 -112.241769 20 14834ft 341kts
09-Oct-18 19:25 40.126346 -112.189832 22 13034ft 330kts
09-Oct-18 19:26 40.209015 -112.141160 22 11236ft 320kts
09-Oct-18 19:27 40.286338 -112.097530 21 10975ft 299kts
09-Oct-18 19:28 40.363866 -112.053987 22 11010ft 306kts
09-Oct-18 19:29 40.437181 -112.012780 22 10976ft 268kts
09-Oct-18 19:30 40.506532 -111.974040 22 10194ft 276kts
09-Oct-18 19:31 40.576553 -111.948042 353 8214ft 255kts
09-Oct-18 19:32 40.642854 -111.957758 355 6349ft 232kts
09-Oct-18 19:33 40.700788 -111.964490 356 5671ft 191kts
09-Oct-18 19:34 40.745819 -111.969709 350 4735ft 138kts
09-Oct-18 19:35 40.780318 -111.973756 351 4235ft 107kts
09-Oct-18 19:36 40.787766 -111.975961 320 4235ft 12kts
09-Oct-18 19:37 40.789740 -111.978317 265 4235ft 11kts
09-Oct-18 19:38 40.788214 -111.979194 84 4235ft 0kts
09-Oct-18 19:39 40.788214 -111.979194 84 4235ft 0kts

Navigation Log

Ident Type
Flight plan parsing failed, navigation log unavailable